createdAt,value
2023-03-16T00:01:37.537Z,1.95
2023-03-16T00:04:39.503Z,1.30
2023-03-16T00:07:42.333Z,1.70
2023-03-16T00:10:46.773Z,1.55
2023-03-16T00:13:48.546Z,1.80
2023-03-16T00:16:50.518Z,1.48
2023-03-16T00:19:55.071Z,1.27
2023-03-16T00:22:57.171Z,1.95
2023-03-16T00:26:03.015Z,1.65
2023-03-16T00:29:04.865Z,1.15
2023-03-16T00:32:07.163Z,1.20
2023-03-16T00:35:09.789Z,1.25
2023-03-16T00:38:11.944Z,0.82
2023-03-16T00:41:16.056Z,0.90
2023-03-16T00:44:17.923Z,1.05
2023-03-16T00:47:19.584Z,1.05
2023-03-16T00:50:22.478Z,0.73
2023-03-16T00:53:24.274Z,1.13
2023-03-16T00:56:27.359Z,0.88
2023-03-16T00:59:29.858Z,1.00
2023-03-16T01:02:31.582Z,0.65
2023-03-16T01:05:33.526Z,1.15
2023-03-16T01:08:35.587Z,1.08
2023-03-16T01:11:38.657Z,0.55
2023-03-16T01:14:41.345Z,1.20
2023-03-16T01:17:43.077Z,0.55
2023-03-16T01:20:50.712Z,0.77
2023-03-16T01:23:53.931Z,1.40
2023-03-16T01:26:57.211Z,1.15
2023-03-16T01:30:00.271Z,1.10
2023-03-16T01:33:02.307Z,1.38
2023-03-16T01:36:06.516Z,1.25
2023-03-16T01:39:17.166Z,1.02
2023-03-16T01:42:24.150Z,1.42
2023-03-16T01:46:08.746Z,1.20
2023-03-16T01:49:23.781Z,0.73
2023-03-16T01:52:33.286Z,1.45
2023-03-16T01:55:36.053Z,1.25
2023-03-16T01:58:43.990Z,1.02
2023-03-16T02:01:47.710Z,1.25
2023-03-16T02:04:58.047Z,1.33
2023-03-16T02:08:01.701Z,1.10
2023-03-16T02:11:06.872Z,1.23
2023-03-16T02:14:18.969Z,1.35
2023-03-16T02:17:23.156Z,1.10
2023-03-16T02:20:36.148Z,0.80
2023-03-16T02:23:38.043Z,1.08
2023-03-16T02:26:47.542Z,0.80
2023-03-16T02:30:07.818Z,0.70
2023-03-16T02:33:18.591Z,0.73
2023-03-16T02:36:21.167Z,1.33
2023-03-16T02:39:26.252Z,0.85
2023-03-16T02:42:29.680Z,1.08
2023-03-16T02:45:39.769Z,1.50
2023-03-16T02:48:47.673Z,1.17
2023-03-16T02:51:49.370Z,1.17
2023-03-16T02:54:51.689Z,0.52
2023-03-16T02:57:53.636Z,1.05
2023-03-16T03:00:56.941Z,0.68
2023-03-16T03:03:58.691Z,0.93
2023-03-16T03:07:04.732Z,0.88
2023-03-16T03:10:11.287Z,1.15
2023-03-16T03:13:13.003Z,1.65
2023-03-16T03:16:16.864Z,1.50
2023-03-16T03:19:18.733Z,1.40
2023-03-16T03:22:20.456Z,1.40
2023-03-16T03:25:23.747Z,0.80
2023-03-16T03:28:28.119Z,1.65
2023-03-16T03:31:31.170Z,1.35
2023-03-16T03:34:32.969Z,1.15
2023-03-16T03:37:35.063Z,1.45
2023-03-16T03:40:37.525Z,1.15
2023-03-16T03:43:39.724Z,1.33
2023-03-16T03:46:47.947Z,1.38
2023-03-16T03:49:49.767Z,1.30
2023-03-16T03:52:51.909Z,1.23
2023-03-16T03:55:54.559Z,1.60
2023-03-16T03:58:56.493Z,1.38
2023-03-16T04:02:28.567Z,1.20
2023-03-16T04:05:30.963Z,1.15
2023-03-16T04:08:32.835Z,0.90
2023-03-16T04:11:34.653Z,0.90
2023-03-16T04:14:36.576Z,1.13
2023-03-16T04:17:43.827Z,1.25
2023-03-16T04:20:46.831Z,1.50
2023-03-16T04:23:55.142Z,1.52
2023-03-16T04:27:04.808Z,1.60
2023-03-16T04:30:11.233Z,1.00
2023-03-16T04:33:17.594Z,1.27
2023-03-16T04:36:24.103Z,1.55
2023-03-16T04:39:26.353Z,0.65
2023-03-16T04:42:29.316Z,1.38
2023-03-16T04:45:32.318Z,0.90
2023-03-16T04:48:36.548Z,0.77
2023-03-16T04:54:48.492Z,1.63
2023-03-16T04:57:52.488Z,1.27
2023-03-16T05:00:56.038Z,1.45
2023-03-16T05:04:03.758Z,0.55
2023-03-16T05:07:08.843Z,1.38
2023-03-16T05:10:15.529Z,0.60
2023-03-16T05:13:17.452Z,0.80
2023-03-16T05:16:22.025Z,1.08
2023-03-16T05:19:26.534Z,1.70
2023-03-16T05:22:28.322Z,1.13
2023-03-16T05:25:46.110Z,1.27
2023-03-16T05:28:49.870Z,0.80
2023-03-16T05:31:54.031Z,1.20
2023-03-16T05:34:59.474Z,1.02
2023-03-16T05:38:02.617Z,0.88
2023-03-16T05:41:06.336Z,0.77
2023-03-16T05:44:37.289Z,0.98
2023-03-16T05:48:08.150Z,0.70
2023-03-16T05:51:16.962Z,0.70
2023-03-16T05:54:21.788Z,1.15
2023-03-16T05:57:23.785Z,0.63
2023-03-16T06:00:27.826Z,0.88
2023-03-16T06:03:41.859Z,0.95
2023-03-16T06:06:48.656Z,0.93
2023-03-16T06:09:59.393Z,0.70
2023-03-16T06:13:02.020Z,0.55
2023-03-16T06:16:06.171Z,0.65
2023-03-16T06:19:09.886Z,0.73
2023-03-16T06:22:13.135Z,1.40
2023-03-16T06:25:15.931Z,2.08
2023-03-16T06:28:19.864Z,1.40
2023-03-16T06:31:21.902Z,1.60
2023-03-16T06:34:23.756Z,1.20
2023-03-16T06:37:26.879Z,1.50
2023-03-16T06:40:29.183Z,1.75
2023-03-16T06:43:31.165Z,1.13
2023-03-16T06:46:33.104Z,1.60
2023-03-16T06:49:37.044Z,1.38
2023-03-16T06:52:47.982Z,1.13
2023-03-16T06:55:49.986Z,1.30
2023-03-16T06:58:52.227Z,1.85
2023-03-16T07:01:54.046Z,1.58
2023-03-16T07:04:55.794Z,1.45
2023-03-16T07:08:00.211Z,1.30
2023-03-16T07:11:02.108Z,1.02
2023-03-16T07:14:05.040Z,1.20
2023-03-16T07:17:08.201Z,1.30
2023-03-16T07:20:12.907Z,1.10
2023-03-16T07:23:16.398Z,0.70
2023-03-16T07:26:19.289Z,1.13
2023-03-16T07:29:28.110Z,1.20
2023-03-16T07:32:32.414Z,1.05
2023-03-16T07:35:34.824Z,1.02
2023-03-16T07:38:38.023Z,1.52
2023-03-16T07:41:40.239Z,1.30
2023-03-16T07:45:06.630Z,1.38
2023-03-16T07:48:08.541Z,1.60
2023-03-16T07:51:36.563Z,1.15
2023-03-16T07:54:40.282Z,1.42
2023-03-16T07:57:47.722Z,1.13
2023-03-16T08:00:51.996Z,1.63
2023-03-16T08:03:54.784Z,1.35
2023-03-16T08:07:00.203Z,1.13
2023-03-16T08:13:19.571Z,1.25
2023-03-16T08:16:22.182Z,1.15
2023-03-16T08:19:25.000Z,1.25
2023-03-16T08:22:27.782Z,1.35
2023-03-16T08:25:31.373Z,1.73
2023-03-16T08:28:39.472Z,1.00
2023-03-16T08:31:45.062Z,1.15
2023-03-16T08:37:54.314Z,1.17
2023-03-16T08:40:58.234Z,1.42
2023-03-16T08:44:01.967Z,0.63
2023-03-16T08:47:05.135Z,1.10
2023-03-16T08:50:10.855Z,1.27
2023-03-16T08:53:14.795Z,1.30
2023-03-16T08:56:18.181Z,1.00
2023-03-16T08:59:29.684Z,1.13
2023-03-16T09:02:32.126Z,0.35
2023-03-16T09:05:34.584Z,1.20
2023-03-16T09:08:39.051Z,0.30
2023-03-16T09:11:42.198Z,1.02
2023-03-16T09:14:44.003Z,1.10
2023-03-16T09:17:45.854Z,1.10
2023-03-16T09:20:50.346Z,1.13
2023-03-16T09:23:52.147Z,1.10
2023-03-16T09:26:55.158Z,0.73
2023-03-16T09:29:59.432Z,1.30
2023-03-16T09:33:01.297Z,1.00
2023-03-16T09:36:03.585Z,1.10
2023-03-16T09:39:05.425Z,0.90
2023-03-16T09:42:16.262Z,0.63
2023-03-16T09:45:26.411Z,1.00
2023-03-16T09:48:30.626Z,1.00
2023-03-16T09:51:43.428Z,0.80
2023-03-16T09:54:56.772Z,0.98
2023-03-16T09:58:01.405Z,0.08
2023-03-16T10:01:11.990Z,0.65
2023-03-16T10:04:24.528Z,0.30
2023-03-16T10:07:38.086Z,0.60
2023-03-16T10:10:58.710Z,0.90
2023-03-16T10:14:09.551Z,0.50
2023-03-16T10:17:17.662Z,0.50
2023-03-16T10:20:22.475Z,0.85
2023-03-16T10:26:34.026Z,0.82
2023-03-16T10:29:37.039Z,0.80
2023-03-16T10:32:38.798Z,0.70
2023-03-16T10:35:46.244Z,0.47
2023-03-16T10:38:51.578Z,0.38
2023-03-16T10:41:57.760Z,0.70
2023-03-16T10:45:03.041Z,0.60
2023-03-16T10:48:09.357Z,0.75
2023-03-16T10:51:14.781Z,0.57
2023-03-16T10:54:25.652Z,0.60
2023-03-16T10:57:33.426Z,0.52
2023-03-16T11:00:41.478Z,0.82
2023-03-16T11:03:47.764Z,0.40
2023-03-16T11:06:54.030Z,0.52
2023-03-16T11:09:56.563Z,0.35
2023-03-16T11:13:03.252Z,0.63
2023-03-16T11:16:21.427Z,1.08
2023-03-16T11:19:27.203Z,0.40
2023-03-16T11:22:30.182Z,0.40
2023-03-16T11:25:38.615Z,0.50
2023-03-16T11:28:46.322Z,0.50
2023-03-16T11:31:53.581Z,0.60
2023-03-16T11:34:55.348Z,0.28
2023-03-16T11:38:09.573Z,0.70
2023-03-16T11:41:15.342Z,0.85
2023-03-16T11:44:28.659Z,0.60
2023-03-16T11:47:49.700Z,0.70
2023-03-16T11:51:03.710Z,0.73
2023-03-16T11:54:16.102Z,0.85
2023-03-16T11:57:32.892Z,0.50
2023-03-16T12:03:57.021Z,0.50
2023-03-16T12:07:14.575Z,0.38
2023-03-16T12:10:26.168Z,0.40
2023-03-16T12:13:39.963Z,0.57
2023-03-16T12:16:49.758Z,0.50
2023-03-16T12:19:57.314Z,0.57
2023-03-16T12:23:06.064Z,0.60
2023-03-16T12:26:09.069Z,0.40
2023-03-16T12:29:20.962Z,0.40
2023-03-16T12:32:36.595Z,0.43
2023-03-16T12:35:48.835Z,0.40
2023-03-16T12:38:57.082Z,0.50
2023-03-16T12:42:09.976Z,0.35
2023-03-16T12:45:17.598Z,0.50
2023-03-16T12:48:27.389Z,0.57
2023-03-16T12:51:38.624Z,0.47
2023-03-16T12:54:52.029Z,0.65
2023-03-16T12:58:02.057Z,0.60
2023-03-16T13:01:10.519Z,0.50
2023-03-16T13:04:27.292Z,0.45
2023-03-16T13:07:31.775Z,0.70
2023-03-16T13:10:33.683Z,0.30
2023-03-16T13:13:47.095Z,0.50
2023-03-16T13:16:49.815Z,0.30
2023-03-16T13:20:00.598Z,0.60
2023-03-16T13:23:30.314Z,0.60
2023-03-16T13:26:50.491Z,0.60
2023-03-16T13:29:57.422Z,0.47
2023-03-16T13:33:06.372Z,0.50
2023-03-16T13:36:08.547Z,0.65
2023-03-16T13:39:18.694Z,0.88
2023-03-16T13:42:22.148Z,0.30
2023-03-16T13:45:29.022Z,0.50
2023-03-16T13:48:37.283Z,0.47
2023-03-16T13:51:39.310Z,0.70
2023-03-16T13:54:42.429Z,0.35
2023-03-16T13:57:45.640Z,0.70
2023-03-16T14:00:47.535Z,0.40
2023-03-16T14:03:49.412Z,0.35
2023-03-16T14:06:56.201Z,0.50
2023-03-16T14:09:59.349Z,0.35
2023-03-16T14:13:08.503Z,0.47
2023-03-16T14:16:17.621Z,0.38
2023-03-16T14:19:24.254Z,0.40
2023-03-16T14:22:33.835Z,0.57
2023-03-16T14:25:37.017Z,0.38
2023-03-16T14:28:39.226Z,0.50
2023-03-16T14:31:41.050Z,0.63
2023-03-16T14:34:44.530Z,0.57
2023-03-16T14:37:46.626Z,0.63
2023-03-16T14:40:55.139Z,0.50
2023-03-16T14:43:59.509Z,0.40
2023-03-16T14:47:04.229Z,0.63
2023-03-16T14:50:08.667Z,0.50
2023-03-16T14:53:11.342Z,0.52
2023-03-16T14:56:14.551Z,0.30
2023-03-16T14:59:16.650Z,0.50
2023-03-16T15:02:21.214Z,0.40
2023-03-16T15:08:28.605Z,0.68
2023-03-16T15:11:31.829Z,0.60
2023-03-16T15:14:52.422Z,0.30
2023-03-16T15:17:54.236Z,0.60
2023-03-16T15:20:56.521Z,0.50
2023-03-16T15:24:01.129Z,0.40
2023-03-16T15:27:09.914Z,0.38
2023-03-16T15:30:16.798Z,0.55
2023-03-16T15:33:18.809Z,0.40
2023-03-16T15:36:22.410Z,0.77
2023-03-16T15:39:25.057Z,0.55
2023-03-16T15:42:28.125Z,0.55
2023-03-16T15:45:30.021Z,0.47
2023-03-16T15:48:32.517Z,0.30
2023-03-16T15:51:34.439Z,0.40
2023-03-16T15:54:36.811Z,0.47
2023-03-16T15:57:40.207Z,0.40
2023-03-16T16:00:42.193Z,0.30
2023-03-16T16:03:44.815Z,0.60
2023-03-16T16:06:47.548Z,0.45
2023-03-16T16:09:49.357Z,0.50
2023-03-16T16:12:54.767Z,0.40
2023-03-16T16:15:56.477Z,0.40
2023-03-16T16:18:58.250Z,0.40
2023-03-16T16:21:59.932Z,0.32
2023-03-16T16:25:01.675Z,0.50
2023-03-16T16:28:13.663Z,0.45
2023-03-16T16:31:16.533Z,0.40
2023-03-16T16:34:21.478Z,0.75
2023-03-16T16:37:24.342Z,0.30
2023-03-16T16:40:38.201Z,0.50
2023-03-16T16:43:44.119Z,0.45
2023-03-16T16:46:47.999Z,0.38
2023-03-16T16:49:51.068Z,0.40
2023-03-16T16:52:54.350Z,0.40
2023-03-16T16:55:57.350Z,0.68
2023-03-16T16:59:07.387Z,0.45
2023-03-16T17:02:21.925Z,0.40
2023-03-16T17:05:25.739Z,0.30
2023-03-16T17:08:28.451Z,0.47
2023-03-16T17:11:32.163Z,0.70
2023-03-16T17:14:36.094Z,0.43
2023-03-16T17:17:37.734Z,0.40
2023-03-16T17:20:39.834Z,0.73
2023-03-16T17:23:42.051Z,0.40
2023-03-16T17:26:46.306Z,0.60
2023-03-16T17:29:49.452Z,0.40
2023-03-16T17:32:52.674Z,0.38
2023-03-16T17:35:55.053Z,0.68
2023-03-16T17:38:57.984Z,0.50
2023-03-16T17:42:01.868Z,0.38
2023-03-16T17:45:17.070Z,0.70
2023-03-16T17:48:20.634Z,0.40
2023-03-16T17:51:25.528Z,0.57
2023-03-16T18:00:36.620Z,0.38
2023-03-16T18:03:38.824Z,0.28
2023-03-16T18:06:42.893Z,0.70
2023-03-16T18:09:45.065Z,0.60
2023-03-16T18:12:50.130Z,0.45
2023-03-16T18:15:55.144Z,0.65
2023-03-16T18:18:59.885Z,0.75
2023-03-16T18:22:03.658Z,0.40
2023-03-16T18:25:26.665Z,0.68
2023-03-16T18:28:29.660Z,0.68
2023-03-16T18:31:32.768Z,0.47
2023-03-16T18:34:35.594Z,0.68
2023-03-16T18:37:37.687Z,0.52
2023-03-16T18:40:40.103Z,0.43
2023-03-16T18:43:42.320Z,0.70
2023-03-16T18:46:47.101Z,0.60
2023-03-16T18:49:52.851Z,0.50
2023-03-16T18:52:55.293Z,0.50
2023-03-16T18:55:57.676Z,0.65
2023-03-16T18:58:59.656Z,0.50
2023-03-16T19:02:04.047Z,0.90
2023-03-16T19:05:12.765Z,0.60
2023-03-16T19:08:15.469Z,0.57
2023-03-16T19:11:18.218Z,1.05
2023-03-16T19:14:22.602Z,0.60
2023-03-16T19:17:25.973Z,0.47
2023-03-16T19:20:29.405Z,0.73
2023-03-16T19:23:35.453Z,0.60
2023-03-16T19:26:37.251Z,0.60
2023-03-16T19:29:39.130Z,0.88
2023-03-16T19:32:42.318Z,0.88
2023-03-16T19:35:51.377Z,0.80
2023-03-16T19:38:54.086Z,0.80
2023-03-16T19:41:57.892Z,0.45
2023-03-16T19:45:00.221Z,1.20
2023-03-16T19:48:10.283Z,0.90
2023-03-16T19:51:13.459Z,0.63
2023-03-16T19:54:22.233Z,0.80
2023-03-16T19:57:25.256Z,1.00
2023-03-16T20:00:28.228Z,0.77
2023-03-16T20:03:34.856Z,0.80
2023-03-16T20:06:36.679Z,1.00
2023-03-16T20:09:38.602Z,1.10
2023-03-16T20:12:41.855Z,1.17
2023-03-16T20:15:43.979Z,1.10
2023-03-16T20:18:49.546Z,0.82
2023-03-16T20:21:51.327Z,0.75
2023-03-16T20:24:54.416Z,0.43
2023-03-16T20:28:01.183Z,0.80
2023-03-16T20:31:05.000Z,0.82
2023-03-16T20:34:23.659Z,0.80
2023-03-16T20:37:27.918Z,0.70
2023-03-16T20:40:29.710Z,1.05
2023-03-16T20:43:32.774Z,1.00
2023-03-16T20:46:34.872Z,0.73
2023-03-16T20:49:38.034Z,1.13
2023-03-16T20:52:39.873Z,1.00
2023-03-16T20:55:41.680Z,1.10
2023-03-16T20:58:45.804Z,0.82
2023-03-16T21:01:47.945Z,1.10
2023-03-16T21:04:51.133Z,0.80
2023-03-16T21:07:53.501Z,0.85
2023-03-16T21:10:57.324Z,1.20
2023-03-16T21:13:59.156Z,0.70
2023-03-16T21:17:01.275Z,1.15
2023-03-16T21:20:14.548Z,0.80
2023-03-16T21:23:18.316Z,1.00
2023-03-16T21:26:22.849Z,1.02
2023-03-16T21:29:24.966Z,0.82
2023-03-16T21:32:28.326Z,0.80
2023-03-16T21:35:34.811Z,0.70
2023-03-16T21:38:36.698Z,0.75
2023-03-16T21:41:38.450Z,0.73
2023-03-16T21:44:40.291Z,1.02
2023-03-16T21:47:43.086Z,0.73
2023-03-16T21:50:48.002Z,0.82
2023-03-16T21:56:51.544Z,0.73
2023-03-16T21:59:53.324Z,0.80
2023-03-16T22:02:57.738Z,0.50
2023-03-16T22:06:00.991Z,0.75
2023-03-16T22:09:04.091Z,1.10
2023-03-16T22:12:09.510Z,0.75
2023-03-16T22:15:12.484Z,1.20
2023-03-16T22:18:30.830Z,0.70
2023-03-16T22:21:36.347Z,0.85
2023-03-16T22:24:38.106Z,1.00
2023-03-16T22:27:40.138Z,0.90
2023-03-16T22:30:42.085Z,0.90
2023-03-16T22:33:45.815Z,0.70
2023-03-16T22:36:48.980Z,0.88
2023-03-16T22:39:50.999Z,0.55
2023-03-16T22:42:54.009Z,0.80
2023-03-16T22:45:56.888Z,0.80
2023-03-16T22:48:58.701Z,0.85
2023-03-16T22:52:02.018Z,1.23
2023-03-16T22:55:06.890Z,0.75
2023-03-16T22:58:15.664Z,0.80
2023-03-16T23:01:20.344Z,1.08
2023-03-16T23:04:24.716Z,0.68
2023-03-16T23:07:27.988Z,0.80
2023-03-16T23:10:31.285Z,0.75
2023-03-16T23:13:33.784Z,0.90
2023-03-16T23:16:37.358Z,0.80
2023-03-16T23:19:39.554Z,0.70
2023-03-16T23:22:42.745Z,0.70
2023-03-16T23:25:46.139Z,0.82
2023-03-16T23:28:48.919Z,1.00
2023-03-16T23:31:51.218Z,0.65
2023-03-16T23:34:53.501Z,0.60
2023-03-16T23:37:57.754Z,0.98
2023-03-16T23:40:59.623Z,0.68
2023-03-16T23:44:01.907Z,0.38
2023-03-16T23:47:03.645Z,0.57
2023-03-16T23:50:06.761Z,0.60
2023-03-16T23:53:13.929Z,0.90
2023-03-16T23:56:15.641Z,0.70
2023-03-16T23:59:19.532Z,0.80
